deformed-offering
Saratoga-Weather Station Historical Data
 
Daily Summary for September 26, 2020 Units:  English    Metric   Both
Daily Weekly Monthly Yearly
  Current: High: Low: Average:
Temperature: 55.7 °F 58.4 °F 55.7 °F 56.7 °F
Dew Point: 48.6 °F 50.4 °F 46.6 °F 48.1 °F
Humidity: 77% 77% 69.2% 73%
Wind Speed: 0mph 0mph 0mph 0mph
Wind Gust: 0mph 0mph - -
WindCalm - - North
Pressure: 30.02 in 30.03 in 30.02 in -
Precipitation: 0.00 in      
 
 
Tabular Data for September 26, 2020
Time Temperature Dew Point Pressure Wind Wind Speed Wind Gust Humidity Rainfall Rate (Hourly) solar
00:04 58.4 °F 49.8 °F 30.03 in Calm     73% 0.00 in 0 W/m2
00:09 58.4 °F 49.9 °F 30.02 in Calm     73.5% 0.00 in 0 W/m2
00:14 58.3 °F 50.4 °F 30.02 in Calm     75% 0.00 in 0 W/m2
00:19 58.3 °F 50.4 °F 30.02 in Calm     75% 0.00 in 0 W/m2
00:24 58.1 °F 50.2 °F 30.02 in Calm     75% 0.00 in 0 W/m2
00:29 58 °F 50 °F 30.02 in Calm     74.7% 0.00 in 0 W/m2
00:34 57.9 °F 49.8 °F 30.02 in Calm     74.2% 0.00 in 0 W/m2
00:39 57.7 °F 49.5 °F 30.02 in Calm     74% 0.00 in 0 W/m2
00:44 57.6 °F 49.1 °F 30.02 in Calm     73.3% 0.00 in 0 W/m2
00:49 57.5 °F 48.5 °F 30.02 in Calm     72% 0.00 in 0 W/m2
00:54 57.3 °F 47.7 °F 30.02 in Calm     70.3% 0.00 in 0 W/m2
00:59 57.2 °F 47.2 °F 30.02 in Calm     69.2% 0.00 in 0 W/m2
01:04 57.2 °F 47.4 °F 30.02 in Calm     69.8% 0.00 in 0 W/m2
01:09 57.1 °F 47.3 °F 30.02 in Calm     69.8% 0.00 in 0 W/m2
01:14 57 °F 47.3 °F 30.02 in Calm     70% 0.00 in 0 W/m2
01:19 57 °F 47.3 °F 30.02 in Calm     70% 0.00 in 0 W/m2
01:24 57 °F 47.3 °F 30.02 in Calm     70% 0.00 in 0 W/m2
01:29 56.9 °F 47.6 °F 30.02 in Calm     70.8% 0.00 in 0 W/m2
01:34 56.9 °F 47.3 °F 30.02 in Calm     70.3% 0.00 in 0 W/m2
01:39 56.8 °F 46.9 °F 30.02 in Calm     69.5% 0.00 in 0 W/m2
01:44 56.7 °F 46.9 °F 30.02 in Calm     69.7% 0.00 in 0 W/m2
01:49 56.7 °F 47.4 °F 30.02 in Calm     71% 0.00 in 0 W/m2
01:54 56.7 °F 47 °F 30.02 in Calm     70% 0.00 in 0 W/m2
01:59 56.6 °F 46.9 °F 30.02 in Calm     70% 0.00 in 0 W/m2
02:04 56.6 °F 46.8 °F 30.02 in Calm     69.8% 0.00 in 0 W/m2
02:09 56.6 °F 46.6 °F 30.02 in Calm     69.4% 0.00 in 0 W/m2
02:14 56.5 °F 46.8 °F 30.02 in Calm     70% 0.00 in 0 W/m2
02:19 56.5 °F 46.8 °F 30.02 in Calm     70% 0.00 in 0 W/m2
02:24 56.5 °F 46.8 °F 30.02 in Calm     70% 0.00 in 0 W/m2
02:29 56.3 °F 46.9 °F 30.02 in Calm     70.7% 0.00 in 0 W/m2
02:34 56.3 °F 46.9 °F 30.02 in Calm     70.8% 0.00 in 0 W/m2
02:39 56.2 °F 46.8 °F 30.02 in Calm     70.7% 0.00 in 0 W/m2
02:44 56.2 °F 47 °F 30.03 in Calm     71.3% 0.00 in 0 W/m2
02:49 56.2 °F 47.3 °F 30.03 in Calm     72% 0.00 in 0 W/m2
02:54 56.2 °F 47.3 °F 30.03 in Calm     72.2% 0.00 in 0 W/m2
02:59 56.1 °F 47.6 °F 30.03 in Calm     73% 0.00 in 0 W/m2
03:04 56.1 °F 48.3 °F 30.03 in Calm     74.9% 0.00 in 0 W/m2
03:09 56.2 °F 48.7 °F 30.03 in Calm     76% 0.00 in 0 W/m2
03:14 56.2 °F 48.7 °F 30.03 in Calm     76% 0.00 in 0 W/m2
03:19 56 °F 48.5 °F 30.03 in Calm     76% 0.00 in 0 W/m2
03:24 56 °F 48.5 °F 30.03 in Calm     76% 0.00 in 0 W/m2
03:29 56 °F 48.5 °F 30.03 in Calm     76% 0.00 in 0 W/m2
03:34 56 °F 48.8 °F 30.03 in Calm     76.7% 0.00 in 0 W/m2
03:39 56 °F 48.9 °F 30.03 in Calm     77% 0.00 in 0 W/m2
03:44 56 °F 48.9 °F 30.03 in Calm     77% 0.00 in 0 W/m2
03:49 55.9 °F 48.7 °F 30.03 in Calm     76.7% 0.00 in 0 W/m2
03:54 55.9 °F 48.8 °F 30.02 in Calm     77% 0.00 in 0 W/m2
03:59 55.9 °F 48.8 °F 30.03 in Calm     77% 0.00 in 0 W/m2
04:04 55.9 °F 48.8 °F 30.03 in Calm     77% 0.00 in 0 W/m2
04:09 55.8 °F 48.5 °F 30.03 in Calm     76.7% 0.00 in 0 W/m2
04:14 55.7 °F 48.6 °F 30.03 in Calm     77% 0.00 in 0 W/m2
04:19 55.7 °F 48.6 °F 30.03 in Calm     77% 0.00 in 0 W/m2
04:24 55.7 °F 48.6 °F 30.03 in Calm     77% 0.00 in 0 W/m2
04:29 55.7 °F 48.6 °F 30.02 in Calm     77% 0.00 in 0 W/m2
04:34 55.7 °F 48.6 °F 30.02 in Calm     77% 0.00 in 0 W/m2
Saratoga, California, USA
Compliments of Weather Underground - 2 mb

WU-history PHP script courtesy of Juneau County Weather and modified for WU/TWC API use by Saratoga-weather.org

This script set is available on GitHub.

deformed-offering